sensor_id;sensor_type;location;lat;lon;timestamp;P1;durP1;ratioP1;P2;durP2;ratioP2
3733;SDS011;1882;52.256;8.874;2023-03-16T00:01:42;3.53;;;2.43;;
3733;SDS011;1882;52.256;8.874;2023-03-16T00:04:09;4.37;;;2.40;;
3733;SDS011;1882;52.256;8.874;2023-03-16T00:06:36;5.50;;;2.47;;
3733;SDS011;1882;52.256;8.874;2023-03-16T00:09:03;5.20;;;2.47;;
3733;SDS011;1882;52.256;8.874;2023-03-16T00:11:29;10.23;;;3.13;;
3733;SDS011;1882;52.256;8.874;2023-03-16T00:13:56;4.40;;;2.80;;
3733;SDS011;1882;52.256;8.874;2023-03-16T00:16:23;5.93;;;2.77;;
3733;SDS011;1882;52.256;8.874;2023-03-16T00:18:50;6.80;;;3.10;;
3733;SDS011;1882;52.256;8.874;2023-03-16T00:21:17;5.90;;;2.47;;
3733;SDS011;1882;52.256;8.874;2023-03-16T00:23:46;3.40;;;2.63;;
3733;SDS011;1882;52.256;8.874;2023-03-16T00:26:13;4.60;;;2.53;;
3733;SDS011;1882;52.256;8.874;2023-03-16T00:28:43;7.90;;;2.63;;
3733;SDS011;1882;52.256;8.874;2023-03-16T00:31:10;6.23;;;2.80;;
3733;SDS011;1882;52.256;8.874;2023-03-16T00:33:40;3.07;;;2.43;;
3733;SDS011;1882;52.256;8.874;2023-03-16T00:36:11;5.80;;;2.90;;
3733;SDS011;1882;52.256;8.874;2023-03-16T00:38:39;5.00;;;2.73;;
3733;SDS011;1882;52.256;8.874;2023-03-16T00:41:11;7.13;;;3.20;;
3733;SDS011;1882;52.256;8.874;2023-03-16T00:43:40;7.97;;;3.00;;
3733;SDS011;1882;52.256;8.874;2023-03-16T00:46:11;4.40;;;2.93;;
3733;SDS011;1882;52.256;8.874;2023-03-16T00:48:42;5.87;;;2.80;;
3733;SDS011;1882;52.256;8.874;2023-03-16T00:51:14;4.87;;;2.93;;
3733;SDS011;1882;52.256;8.874;2023-03-16T00:53:43;4.43;;;2.37;;
3733;SDS011;1882;52.256;8.874;2023-03-16T00:56:12;5.10;;;2.83;;
3733;SDS011;1882;52.256;8.874;2023-03-16T00:58:39;6.77;;;2.87;;
3733;SDS011;1882;52.256;8.874;2023-03-16T01:01:12;4.07;;;2.43;;
3733;SDS011;1882;52.256;8.874;2023-03-16T01:03:43;4.80;;;2.70;;
3733;SDS011;1882;52.256;8.874;2023-03-16T01:06:14;4.63;;;2.60;;
3733;SDS011;1882;52.256;8.874;2023-03-16T01:08:45;5.17;;;2.70;;
3733;SDS011;1882;52.256;8.874;2023-03-16T01:11:21;7.33;;;2.80;;
3733;SDS011;1882;52.256;8.874;2023-03-16T01:13:49;4.47;;;2.93;;
3733;SDS011;1882;52.256;8.874;2023-03-16T01:16:19;8.20;;;2.93;;
3733;SDS011;1882;52.256;8.874;2023-03-16T01:18:49;7.47;;;3.10;;
3733;SDS011;1882;52.256;8.874;2023-03-16T01:21:17;8.93;;;3.43;;
3733;SDS011;1882;52.256;8.874;2023-03-16T01:23:44;5.77;;;2.80;;
3733;SDS011;1882;52.256;8.874;2023-03-16T01:26:28;4.17;;;2.70;;
3733;SDS011;1882;52.256;8.874;2023-03-16T01:28:55;5.07;;;2.80;;
3733;SDS011;1882;52.256;8.874;2023-03-16T01:31:22;6.10;;;2.93;;
3733;SDS011;1882;52.256;8.874;2023-03-16T01:33:52;6.30;;;2.93;;
3733;SDS011;1882;52.256;8.874;2023-03-16T01:36:22;6.53;;;2.93;;
3733;SDS011;1882;52.256;8.874;2023-03-16T01:38:55;5.07;;;3.00;;
3733;SDS011;1882;52.256;8.874;2023-03-16T01:41:25;5.70;;;2.50;;
3733;SDS011;1882;52.256;8.874;2023-03-16T01:43:52;5.80;;;2.70;;
3733;SDS011;1882;52.256;8.874;2023-03-16T01:46:25;13.73;;;2.90;;
3733;SDS011;1882;52.256;8.874;2023-03-16T01:56:50;7.23;;;3.40;;
3733;SDS011;1882;52.256;8.874;2023-03-16T01:59:22;4.57;;;3.20;;
3733;SDS011;1882;52.256;8.874;2023-03-16T02:01:53;4.70;;;3.07;;
3733;SDS011;1882;52.256;8.874;2023-03-16T02:04:30;8.00;;;2.60;;
3733;SDS011;1882;52.256;8.874;2023-03-16T02:07:20;8.00;;;2.80;;
3733;SDS011;1882;52.256;8.874;2023-03-16T02:09:50;5.27;;;2.93;;
3733;SDS011;1882;52.256;8.874;2023-03-16T02:12:19;6.87;;;3.07;;
3733;SDS011;1882;52.256;8.874;2023-03-16T02:14:50;3.90;;;2.83;;
3733;SDS011;1882;52.256;8.874;2023-03-16T02:17:19;7.13;;;2.73;;
3733;SDS011;1882;52.256;8.874;2023-03-16T02:22:46;7.17;;;2.77;;
3733;SDS011;1882;52.256;8.874;2023-03-16T02:25:15;3.93;;;2.90;;
3733;SDS011;1882;52.256;8.874;2023-03-16T02:30:43;4.87;;;3.03;;
3733;SDS011;1882;52.256;8.874;2023-03-16T02:33:09;5.30;;;3.13;;
3733;SDS011;1882;52.256;8.874;2023-03-16T02:35:37;8.83;;;2.60;;
3733;SDS011;1882;52.256;8.874;2023-03-16T02:38:04;3.80;;;2.77;;
3733;SDS011;1882;52.256;8.874;2023-03-16T02:40:37;6.50;;;3.00;;
3733;SDS011;1882;52.256;8.874;2023-03-16T02:43:10;5.60;;;2.70;;
3733;SDS011;1882;52.256;8.874;2023-03-16T02:45:54;5.30;;;3.07;;
3733;SDS011;1882;52.256;8.874;2023-03-16T02:51:13;10.57;;;3.27;;
3733;SDS011;1882;52.256;8.874;2023-03-16T02:53:46;4.13;;;2.83;;
3733;SDS011;1882;52.256;8.874;2023-03-16T02:56:13;6.10;;;2.53;;
3733;SDS011;1882;52.256;8.874;2023-03-16T02:58:40;10.03;;;3.43;;
3733;SDS011;1882;52.256;8.874;2023-03-16T03:01:19;5.20;;;2.80;;
3733;SDS011;1882;52.256;8.874;2023-03-16T03:03:47;6.03;;;2.70;;
3733;SDS011;1882;52.256;8.874;2023-03-16T03:06:13;6.43;;;2.90;;
3733;SDS011;1882;52.256;8.874;2023-03-16T03:08:43;6.33;;;2.87;;
3733;SDS011;1882;52.256;8.874;2023-03-16T03:11:19;9.27;;;3.23;;
3733;SDS011;1882;52.256;8.874;2023-03-16T03:13:46;4.43;;;2.83;;
3733;SDS011;1882;52.256;8.874;2023-03-16T03:16:25;7.87;;;3.50;;
3733;SDS011;1882;52.256;8.874;2023-03-16T03:18:53;4.63;;;2.70;;
3733;SDS011;1882;52.256;8.874;2023-03-16T03:21:20;7.30;;;3.30;;
3733;SDS011;1882;52.256;8.874;2023-03-16T03:23:50;6.73;;;3.00;;
3733;SDS011;1882;52.256;8.874;2023-03-16T03:26:20;7.27;;;3.17;;
3733;SDS011;1882;52.256;8.874;2023-03-16T03:28:47;6.47;;;3.27;;
3733;SDS011;1882;52.256;8.874;2023-03-16T03:31:14;4.60;;;2.93;;
3733;SDS011;1882;52.256;8.874;2023-03-16T03:33:52;4.97;;;2.90;;
3733;SDS011;1882;52.256;8.874;2023-03-16T03:36:20;6.67;;;2.70;;
3733;SDS011;1882;52.256;8.874;2023-03-16T03:38:47;4.93;;;2.60;;
3733;SDS011;1882;52.256;8.874;2023-03-16T03:41:22;8.90;;;2.60;;
3733;SDS011;1882;52.256;8.874;2023-03-16T03:43:52;10.00;;;2.83;;
3733;SDS011;1882;52.256;8.874;2023-03-16T03:46:18;5.83;;;2.50;;
3733;SDS011;1882;52.256;8.874;2023-03-16T03:48:53;7.07;;;2.70;;
3733;SDS011;1882;52.256;8.874;2023-03-16T03:51:20;5.23;;;2.80;;
3733;SDS011;1882;52.256;8.874;2023-03-16T03:54:06;6.60;;;2.60;;
3733;SDS011;1882;52.256;8.874;2023-03-16T03:56:36;6.07;;;2.60;;
3733;SDS011;1882;52.256;8.874;2023-03-16T03:59:12;2.80;;;2.40;;
3733;SDS011;1882;52.256;8.874;2023-03-16T04:02:10;5.90;;;2.80;;
3733;SDS011;1882;52.256;8.874;2023-03-16T04:04:42;4.03;;;2.43;;
3733;SDS011;1882;52.256;8.874;2023-03-16T04:07:11;8.03;;;2.97;;
3733;SDS011;1882;52.256;8.874;2023-03-16T04:09:40;5.03;;;3.33;;
3733;SDS011;1882;52.256;8.874;2023-03-16T04:12:14;11.17;;;2.67;;
3733;SDS011;1882;52.256;8.874;2023-03-16T04:14:41;5.13;;;2.57;;
3733;SDS011;1882;52.256;8.874;2023-03-16T04:17:16;7.40;;;2.77;;
3733;SDS011;1882;52.256;8.874;2023-03-16T04:19:45;4.70;;;2.57;;
3733;SDS011;1882;52.256;8.874;2023-03-16T04:22:15;10.97;;;2.63;;
3733;SDS011;1882;52.256;8.874;2023-03-16T04:24:42;5.07;;;2.83;;
3733;SDS011;1882;52.256;8.874;2023-03-16T04:27:11;5.67;;;2.40;;
3733;SDS011;1882;52.256;8.874;2023-03-16T04:29:38;6.10;;;2.80;;
3733;SDS011;1882;52.256;8.874;2023-03-16T04:32:06;3.80;;;2.73;;
3733;SDS011;1882;52.256;8.874;2023-03-16T04:34:41;7.50;;;2.80;;
3733;SDS011;1882;52.256;8.874;2023-03-16T04:37:11;5.47;;;2.60;;
3733;SDS011;1882;52.256;8.874;2023-03-16T04:39:43;5.70;;;2.63;;
3733;SDS011;1882;52.256;8.874;2023-03-16T04:42:09;3.43;;;2.27;;
3733;SDS011;1882;52.256;8.874;2023-03-16T04:44:37;5.13;;;2.83;;
3733;SDS011;1882;52.256;8.874;2023-03-16T04:47:15;7.80;;;3.40;;
3733;SDS011;1882;52.256;8.874;2023-03-16T04:49:43;4.93;;;2.70;;
3733;SDS011;1882;52.256;8.874;2023-03-16T04:52:10;5.17;;;2.77;;
3733;SDS011;1882;52.256;8.874;2023-03-16T04:54:38;4.50;;;3.23;;
3733;SDS011;1882;52.256;8.874;2023-03-16T04:57:15;7.63;;;2.90;;
3733;SDS011;1882;52.256;8.874;2023-03-16T04:59:47;6.03;;;3.10;;
3733;SDS011;1882;52.256;8.874;2023-03-16T05:02:30;4.93;;;2.93;;
3733;SDS011;1882;52.256;8.874;2023-03-16T05:04:59;4.30;;;2.83;;
3733;SDS011;1882;52.256;8.874;2023-03-16T05:07:26;5.90;;;3.00;;
3733;SDS011;1882;52.256;8.874;2023-03-16T05:09:54;5.17;;;3.10;;
3733;SDS011;1882;52.256;8.874;2023-03-16T05:12:21;4.70;;;3.10;;
3733;SDS011;1882;52.256;8.874;2023-03-16T05:14:52;4.57;;;3.00;;
3733;SDS011;1882;52.256;8.874;2023-03-16T05:17:24;4.53;;;2.77;;
3733;SDS011;1882;52.256;8.874;2023-03-16T05:19:50;4.87;;;2.80;;
3733;SDS011;1882;52.256;8.874;2023-03-16T05:22:18;4.00;;;2.90;;
3733;SDS011;1882;52.256;8.874;2023-03-16T05:25:05;7.10;;;3.07;;
3733;SDS011;1882;52.256;8.874;2023-03-16T05:27:32;3.77;;;2.90;;
3733;SDS011;1882;52.256;8.874;2023-03-16T05:30:02;5.60;;;3.30;;
3733;SDS011;1882;52.256;8.874;2023-03-16T05:32:30;7.73;;;3.10;;
3733;SDS011;1882;52.256;8.874;2023-03-16T05:34:57;6.90;;;2.83;;
3733;SDS011;1882;52.256;8.874;2023-03-16T05:37:32;5.53;;;3.27;;
3733;SDS011;1882;52.256;8.874;2023-03-16T05:40:00;7.00;;;3.17;;
3733;SDS011;1882;52.256;8.874;2023-03-16T05:42:27;5.47;;;2.70;;
3733;SDS011;1882;52.256;8.874;2023-03-16T05:44:58;12.87;;;3.60;;
3733;SDS011;1882;52.256;8.874;2023-03-16T05:47:31;11.07;;;3.37;;
3733;SDS011;1882;52.256;8.874;2023-03-16T05:49:58;6.17;;;3.43;;
3733;SDS011;1882;52.256;8.874;2023-03-16T05:52:36;9.20;;;3.10;;
3733;SDS011;1882;52.256;8.874;2023-03-16T05:55:11;4.77;;;2.80;;
3733;SDS011;1882;52.256;8.874;2023-03-16T05:57:40;5.60;;;3.13;;
3733;SDS011;1882;52.256;8.874;2023-03-16T06:00:09;4.27;;;2.53;;
3733;SDS011;1882;52.256;8.874;2023-03-16T06:02:46;6.67;;;3.20;;
3733;SDS011;1882;52.256;8.874;2023-03-16T06:05:15;5.60;;;3.23;;
3733;SDS011;1882;52.256;8.874;2023-03-16T06:07:44;4.97;;;3.10;;
3733;SDS011;1882;52.256;8.874;2023-03-16T06:10:12;9.77;;;3.50;;
3733;SDS011;1882;52.256;8.874;2023-03-16T06:12:40;7.63;;;3.13;;
3733;SDS011;1882;52.256;8.874;2023-03-16T06:15:08;8.17;;;3.60;;
3733;SDS011;1882;52.256;8.874;2023-03-16T06:17:36;6.57;;;3.80;;
3733;SDS011;1882;52.256;8.874;2023-03-16T06:20:03;7.47;;;3.07;;
3733;SDS011;1882;52.256;8.874;2023-03-16T06:22:38;8.93;;;3.13;;
3733;SDS011;1882;52.256;8.874;2023-03-16T06:25:06;8.23;;;3.20;;
3733;SDS011;1882;52.256;8.874;2023-03-16T06:27:35;7.13;;;3.20;;
3733;SDS011;1882;52.256;8.874;2023-03-16T06:30:15;6.27;;;3.40;;
3733;SDS011;1882;52.256;8.874;2023-03-16T06:32:42;5.83;;;3.00;;
3733;SDS011;1882;52.256;8.874;2023-03-16T06:35:10;4.80;;;2.93;;
3733;SDS011;1882;52.256;8.874;2023-03-16T06:37:43;5.20;;;3.50;;
3733;SDS011;1882;52.256;8.874;2023-03-16T06:40:30;11.60;;;3.60;;
3733;SDS011;1882;52.256;8.874;2023-03-16T06:42:57;6.10;;;3.27;;
3733;SDS011;1882;52.256;8.874;2023-03-16T06:45:26;8.27;;;3.03;;
3733;SDS011;1882;52.256;8.874;2023-03-16T06:47:57;7.27;;;3.43;;
3733;SDS011;1882;52.256;8.874;2023-03-16T06:50:24;9.93;;;3.50;;
3733;SDS011;1882;52.256;8.874;2023-03-16T06:52:57;6.40;;;3.60;;
3733;SDS011;1882;52.256;8.874;2023-03-16T06:55:24;7.77;;;3.40;;
3733;SDS011;1882;52.256;8.874;2023-03-16T06:58:02;8.77;;;3.73;;
3733;SDS011;1882;52.256;8.874;2023-03-16T07:00:29;6.70;;;3.10;;
3733;SDS011;1882;52.256;8.874;2023-03-16T07:02:56;6.90;;;3.67;;
3733;SDS011;1882;52.256;8.874;2023-03-16T07:05:26;5.53;;;3.33;;
3733;SDS011;1882;52.256;8.874;2023-03-16T07:07:55;5.80;;;3.40;;
3733;SDS011;1882;52.256;8.874;2023-03-16T07:10:23;8.23;;;3.67;;
3733;SDS011;1882;52.256;8.874;2023-03-16T07:12:51;8.70;;;3.83;;
3733;SDS011;1882;52.256;8.874;2023-03-16T07:15:20;6.70;;;3.57;;
3733;SDS011;1882;52.256;8.874;2023-03-16T07:17:48;6.33;;;3.57;;
3733;SDS011;1882;52.256;8.874;2023-03-16T07:20:18;4.10;;;3.30;;
3733;SDS011;1882;52.256;8.874;2023-03-16T07:23:04;6.70;;;3.63;;
3733;SDS011;1882;52.256;8.874;2023-03-16T07:25:33;5.77;;;3.30;;
3733;SDS011;1882;52.256;8.874;2023-03-16T07:28:00;6.00;;;3.23;;
3733;SDS011;1882;52.256;8.874;2023-03-16T07:30:34;7.50;;;3.47;;
3733;SDS011;1882;52.256;8.874;2023-03-16T07:33:00;6.07;;;3.37;;
3733;SDS011;1882;52.256;8.874;2023-03-16T07:35:29;7.00;;;3.60;;
3733;SDS011;1882;52.256;8.874;2023-03-16T07:37:56;6.00;;;3.37;;
3733;SDS011;1882;52.256;8.874;2023-03-16T07:40:23;7.60;;;3.53;;
3733;SDS011;1882;52.256;8.874;2023-03-16T07:43:01;5.33;;;3.23;;
3733;SDS011;1882;52.256;8.874;2023-03-16T07:45:34;7.47;;;3.60;;
3733;SDS011;1882;52.256;8.874;2023-03-16T07:48:02;6.33;;;3.50;;
3733;SDS011;1882;52.256;8.874;2023-03-16T07:50:48;4.90;;;3.00;;
3733;SDS011;1882;52.256;8.874;2023-03-16T07:53:15;7.80;;;2.77;;
3733;SDS011;1882;52.256;8.874;2023-03-16T07:55:48;4.17;;;3.00;;
3733;SDS011;1882;52.256;8.874;2023-03-16T07:58:16;4.50;;;2.77;;
3733;SDS011;1882;52.256;8.874;2023-03-16T08:00:44;6.73;;;2.90;;
3733;SDS011;1882;52.256;8.874;2023-03-16T08:03:11;4.30;;;3.30;;
3733;SDS011;1882;52.256;8.874;2023-03-16T08:05:37;6.10;;;3.00;;
3733;SDS011;1882;52.256;8.874;2023-03-16T08:08:10;4.27;;;2.70;;
3733;SDS011;1882;52.256;8.874;2023-03-16T08:10:37;8.83;;;2.57;;
3733;SDS011;1882;52.256;8.874;2023-03-16T08:13:11;6.33;;;2.90;;
3733;SDS011;1882;52.256;8.874;2023-03-16T08:15:40;3.23;;;2.63;;
3733;SDS011;1882;52.256;8.874;2023-03-16T08:18:14;8.47;;;2.90;;
3733;SDS011;1882;52.256;8.874;2023-03-16T08:20:41;5.73;;;2.60;;
3733;SDS011;1882;52.256;8.874;2023-03-16T08:23:10;5.00;;;2.97;;
3733;SDS011;1882;52.256;8.874;2023-03-16T08:25:39;4.17;;;2.77;;
3733;SDS011;1882;52.256;8.874;2023-03-16T08:28:11;4.57;;;2.67;;
3733;SDS011;1882;52.256;8.874;2023-03-16T08:30:45;4.97;;;2.80;;
3733;SDS011;1882;52.256;8.874;2023-03-16T08:33:25;4.50;;;2.57;;
3733;SDS011;1882;52.256;8.874;2023-03-16T08:35:52;4.20;;;2.57;;
3733;SDS011;1882;52.256;8.874;2023-03-16T08:38:19;3.40;;;2.50;;
3733;SDS011;1882;52.256;8.874;2023-03-16T08:40:49;2.60;;;2.33;;
3733;SDS011;1882;52.256;8.874;2023-03-16T08:43:24;3.03;;;2.43;;
3733;SDS011;1882;52.256;8.874;2023-03-16T08:45:52;5.47;;;2.53;;
3733;SDS011;1882;52.256;8.874;2023-03-16T08:48:23;2.93;;;2.40;;
3733;SDS011;1882;52.256;8.874;2023-03-16T08:50:55;4.87;;;2.70;;
3733;SDS011;1882;52.256;8.874;2023-03-16T08:53:22;3.63;;;2.83;;
3733;SDS011;1882;52.256;8.874;2023-03-16T08:55:49;6.40;;;2.80;;
3733;SDS011;1882;52.256;8.874;2023-03-16T08:58:15;5.23;;;2.53;;
3733;SDS011;1882;52.256;8.874;2023-03-16T09:00:45;12.13;;;2.63;;
3733;SDS011;1882;52.256;8.874;2023-03-16T09:03:18;6.43;;;2.70;;
3733;SDS011;1882;52.256;8.874;2023-03-16T09:05:45;3.47;;;2.80;;
3733;SDS011;1882;52.256;8.874;2023-03-16T09:08:16;6.53;;;2.53;;
3733;SDS011;1882;52.256;8.874;2023-03-16T09:10:43;3.27;;;2.53;;
3733;SDS011;1882;52.256;8.874;2023-03-16T09:13:10;6.47;;;2.73;;
3733;SDS011;1882;52.256;8.874;2023-03-16T09:15:38;4.77;;;2.63;;
3733;SDS011;1882;52.256;8.874;2023-03-16T09:18:05;3.87;;;3.07;;
3733;SDS011;1882;52.256;8.874;2023-03-16T09:20:34;3.27;;;2.80;;
3733;SDS011;1882;52.256;8.874;2023-03-16T09:23:02;2.73;;;2.37;;
3733;SDS011;1882;52.256;8.874;2023-03-16T09:25:29;3.30;;;3.00;;
3733;SDS011;1882;52.256;8.874;2023-03-16T09:27:57;4.30;;;2.67;;
3733;SDS011;1882;52.256;8.874;2023-03-16T09:30:35;4.87;;;2.87;;
3733;SDS011;1882;52.256;8.874;2023-03-16T09:33:02;7.47;;;2.93;;
3733;SDS011;1882;52.256;8.874;2023-03-16T09:35:40;4.83;;;2.60;;
3733;SDS011;1882;52.256;8.874;2023-03-16T09:38:08;4.23;;;2.80;;
3733;SDS011;1882;52.256;8.874;2023-03-16T09:40:35;3.30;;;2.50;;
3733;SDS011;1882;52.256;8.874;2023-03-16T09:48:17;4.80;;;2.70;;
3733;SDS011;1882;52.256;8.874;2023-03-16T09:50:46;4.27;;;2.80;;
3733;SDS011;1882;52.256;8.874;2023-03-16T09:53:26;5.73;;;2.83;;
3733;SDS011;1882;52.256;8.874;2023-03-16T09:55:59;4.40;;;3.43;;
3733;SDS011;1882;52.256;8.874;2023-03-16T09:58:32;7.80;;;3.70;;
3733;SDS011;1882;52.256;8.874;2023-03-16T10:06:36;8.77;;;2.60;;
3733;SDS011;1882;52.256;8.874;2023-03-16T10:09:31;3.40;;;2.43;;
3733;SDS011;1882;52.256;8.874;2023-03-16T10:12:03;6.07;;;3.20;;
3733;SDS011;1882;52.256;8.874;2023-03-16T10:14:40;3.83;;;2.90;;
3733;SDS011;1882;52.256;8.874;2023-03-16T10:17:22;9.30;;;3.00;;
3733;SDS011;1882;52.256;8.874;2023-03-16T10:19:52;4.60;;;3.40;;
3733;SDS011;1882;52.256;8.874;2023-03-16T10:22:30;6.33;;;4.17;;
3733;SDS011;1882;52.256;8.874;2023-03-16T10:27:40;5.00;;;2.57;;
3733;SDS011;1882;52.256;8.874;2023-03-16T10:32:45;5.40;;;2.60;;
3733;SDS011;1882;52.256;8.874;2023-03-16T10:37:56;3.63;;;2.67;;
3733;SDS011;1882;52.256;8.874;2023-03-16T10:40:29;3.47;;;2.53;;
3733;SDS011;1882;52.256;8.874;2023-03-16T10:43:33;4.40;;;2.60;;
3733;SDS011;1882;52.256;8.874;2023-03-16T10:45:58;3.03;;;2.50;;
3733;SDS011;1882;52.256;8.874;2023-03-16T10:48:29;3.83;;;2.60;;
3733;SDS011;1882;52.256;8.874;2023-03-16T10:50:59;5.23;;;2.63;;
3733;SDS011;1882;52.256;8.874;2023-03-16T10:53:33;2.90;;;2.50;;
3733;SDS011;1882;52.256;8.874;2023-03-16T10:56:08;3.77;;;2.50;;
3733;SDS011;1882;52.256;8.874;2023-03-16T10:58:46;5.60;;;2.70;;
3733;SDS011;1882;52.256;8.874;2023-03-16T11:01:24;4.40;;;2.57;;
3733;SDS011;1882;52.256;8.874;2023-03-16T11:03:56;6.70;;;2.70;;
3733;SDS011;1882;52.256;8.874;2023-03-16T11:06:27;3.50;;;2.50;;
3733;SDS011;1882;52.256;8.874;2023-03-16T11:09:41;5.17;;;2.50;;
3733;SDS011;1882;52.256;8.874;2023-03-16T11:11:53;4.50;;;2.50;;
3733;SDS011;1882;52.256;8.874;2023-03-16T11:14:25;4.17;;;2.90;;
3733;SDS011;1882;52.256;8.874;2023-03-16T11:17:13;3.03;;;2.73;;
3733;SDS011;1882;52.256;8.874;2023-03-16T11:19:49;2.60;;;2.27;;
3733;SDS011;1882;52.256;8.874;2023-03-16T11:22:19;3.40;;;2.70;;
3733;SDS011;1882;52.256;8.874;2023-03-16T11:32:47;4.00;;;2.83;;
3733;SDS011;1882;52.256;8.874;2023-03-16T11:43:19;5.20;;;3.07;;
3733;SDS011;1882;52.256;8.874;2023-03-16T11:45:55;4.90;;;3.00;;
3733;SDS011;1882;52.256;8.874;2023-03-16T11:48:38;3.93;;;2.50;;
3733;SDS011;1882;52.256;8.874;2023-03-16T11:51:31;5.70;;;2.83;;
3733;SDS011;1882;52.256;8.874;2023-03-16T11:54:05;3.53;;;2.53;;
3733;SDS011;1882;52.256;8.874;2023-03-16T11:56:49;5.53;;;3.20;;
3733;SDS011;1882;52.256;8.874;2023-03-16T12:12:55;6.17;;;3.03;;
3733;SDS011;1882;52.256;8.874;2023-03-16T12:18:24;4.90;;;3.00;;
3733;SDS011;1882;52.256;8.874;2023-03-16T12:20:53;3.70;;;2.87;;
3733;SDS011;1882;52.256;8.874;2023-03-16T12:26:22;2.90;;;2.60;;
3733;SDS011;1882;52.256;8.874;2023-03-16T12:28:51;6.57;;;2.97;;
3733;SDS011;1882;52.256;8.874;2023-03-16T12:32:04;4.37;;;2.90;;
3733;SDS011;1882;52.256;8.874;2023-03-16T12:45:16;5.10;;;2.63;;
3733;SDS011;1882;52.256;8.874;2023-03-16T12:50:30;5.63;;;3.23;;
3733;SDS011;1882;52.256;8.874;2023-03-16T12:52:58;4.87;;;3.50;;
3733;SDS011;1882;52.256;8.874;2023-03-16T12:58:01;6.03;;;3.00;;
3733;SDS011;1882;52.256;8.874;2023-03-16T13:00:40;4.30;;;2.80;;
3733;SDS011;1882;52.256;8.874;2023-03-16T13:06:03;3.90;;;3.00;;
3733;SDS011;1882;52.256;8.874;2023-03-16T13:08:40;6.47;;;3.40;;
3733;SDS011;1882;52.256;8.874;2023-03-16T13:11:21;5.20;;;3.17;;
3733;SDS011;1882;52.256;8.874;2023-03-16T13:13:51;3.60;;;3.10;;
3733;SDS011;1882;52.256;8.874;2023-03-16T13:16:34;4.67;;;3.07;;
3733;SDS011;1882;52.256;8.874;2023-03-16T13:19:16;6.63;;;3.13;;
3733;SDS011;1882;52.256;8.874;2023-03-16T13:21:58;7.10;;;4.33;;
3733;SDS011;1882;52.256;8.874;2023-03-16T13:24:34;4.83;;;3.00;;
3733;SDS011;1882;52.256;8.874;2023-03-16T13:27:11;7.30;;;3.63;;
3733;SDS011;1882;52.256;8.874;2023-03-16T13:29:56;7.20;;;3.37;;
3733;SDS011;1882;52.256;8.874;2023-03-16T13:32:25;5.47;;;3.27;;
3733;SDS011;1882;52.256;8.874;2023-03-16T13:35:00;4.53;;;3.00;;
3733;SDS011;1882;52.256;8.874;2023-03-16T13:37:31;5.37;;;3.30;;
3733;SDS011;1882;52.256;8.874;2023-03-16T13:39:59;3.57;;;3.10;;
3733;SDS011;1882;52.256;8.874;2023-03-16T13:42:30;4.03;;;3.03;;
3733;SDS011;1882;52.256;8.874;2023-03-16T13:45:06;5.20;;;3.07;;
3733;SDS011;1882;52.256;8.874;2023-03-16T13:47:40;5.63;;;3.30;;
3733;SDS011;1882;52.256;8.874;2023-03-16T13:50:11;3.13;;;2.83;;
3733;SDS011;1882;52.256;8.874;2023-03-16T13:52:39;5.37;;;3.60;;
3733;SDS011;1882;52.256;8.874;2023-03-16T13:55:28;4.30;;;3.20;;
3733;SDS011;1882;52.256;8.874;2023-03-16T13:58:00;4.43;;;2.77;;
3733;SDS011;1882;52.256;8.874;2023-03-16T14:00:31;3.63;;;2.77;;
3733;SDS011;1882;52.256;8.874;2023-03-16T14:03:07;4.10;;;2.87;;
3733;SDS011;1882;52.256;8.874;2023-03-16T14:05:44;2.73;;;2.27;;
3733;SDS011;1882;52.256;8.874;2023-03-16T14:08:20;4.63;;;2.60;;
3733;SDS011;1882;52.256;8.874;2023-03-16T14:10:49;5.33;;;2.70;;
3733;SDS011;1882;52.256;8.874;2023-03-16T14:15:59;3.93;;;3.00;;
3733;SDS011;1882;52.256;8.874;2023-03-16T14:18:33;3.90;;;2.90;;
3733;SDS011;1882;52.256;8.874;2023-03-16T14:21:06;4.20;;;2.93;;
3733;SDS011;1882;52.256;8.874;2023-03-16T14:24:04;3.87;;;2.70;;
3733;SDS011;1882;52.256;8.874;2023-03-16T14:26:45;2.87;;;2.67;;
3733;SDS011;1882;52.256;8.874;2023-03-16T14:29:26;4.40;;;2.80;;
3733;SDS011;1882;52.256;8.874;2023-03-16T14:31:56;3.93;;;2.60;;
3733;SDS011;1882;52.256;8.874;2023-03-16T14:37:10;5.27;;;3.40;;
3733;SDS011;1882;52.256;8.874;2023-03-16T14:39:40;6.53;;;2.57;;
3733;SDS011;1882;52.256;8.874;2023-03-16T14:42:15;3.30;;;2.80;;
3733;SDS011;1882;52.256;8.874;2023-03-16T14:44:55;4.43;;;2.70;;
3733;SDS011;1882;52.256;8.874;2023-03-16T14:47:32;4.77;;;2.77;;
3733;SDS011;1882;52.256;8.874;2023-03-16T14:50:06;3.00;;;2.40;;
3733;SDS011;1882;52.256;8.874;2023-03-16T14:52:42;3.63;;;2.60;;
3733;SDS011;1882;52.256;8.874;2023-03-16T14:55:12;4.53;;;2.63;;
3733;SDS011;1882;52.256;8.874;2023-03-16T14:57:41;3.70;;;2.60;;
3733;SDS011;1882;52.256;8.874;2023-03-16T15:00:09;3.77;;;2.50;;
3733;SDS011;1882;52.256;8.874;2023-03-16T15:02:38;3.47;;;2.57;;
3733;SDS011;1882;52.256;8.874;2023-03-16T15:05:07;2.27;;;2.03;;
3733;SDS011;1882;52.256;8.874;2023-03-16T15:07:37;2.60;;;2.37;;
3733;SDS011;1882;52.256;8.874;2023-03-16T15:12:42;2.83;;;2.40;;
3733;SDS011;1882;52.256;8.874;2023-03-16T15:15:16;3.80;;;2.20;;
3733;SDS011;1882;52.256;8.874;2023-03-16T15:17:45;2.70;;;2.10;;
3733;SDS011;1882;52.256;8.874;2023-03-16T15:20:13;2.10;;;2.00;;
3733;SDS011;1882;52.256;8.874;2023-03-16T15:22:44;3.03;;;2.33;;
3733;SDS011;1882;52.256;8.874;2023-03-16T15:30:49;4.67;;;2.10;;
3733;SDS011;1882;52.256;8.874;2023-03-16T15:33:20;2.37;;;2.00;;
3733;SDS011;1882;52.256;8.874;2023-03-16T15:35:47;1.83;;;1.73;;
3733;SDS011;1882;52.256;8.874;2023-03-16T15:38:20;2.07;;;1.50;;
3733;SDS011;1882;52.256;8.874;2023-03-16T15:40:53;3.43;;;2.40;;
3733;SDS011;1882;52.256;8.874;2023-03-16T15:43:21;2.53;;;1.90;;
3733;SDS011;1882;52.256;8.874;2023-03-16T15:45:50;2.13;;;1.93;;
3733;SDS011;1882;52.256;8.874;2023-03-16T15:48:27;2.40;;;1.90;;
3733;SDS011;1882;52.256;8.874;2023-03-16T15:50:54;1.70;;;1.60;;
3733;SDS011;1882;52.256;8.874;2023-03-16T15:53:42;1.90;;;1.70;;
3733;SDS011;1882;52.256;8.874;2023-03-16T15:56:12;1.97;;;1.80;;
3733;SDS011;1882;52.256;8.874;2023-03-16T15:58:49;4.60;;;1.90;;
3733;SDS011;1882;52.256;8.874;2023-03-16T16:01:23;3.23;;;1.83;;
3733;SDS011;1882;52.256;8.874;2023-03-16T16:03:51;2.80;;;1.97;;
3733;SDS011;1882;52.256;8.874;2023-03-16T16:06:19;1.80;;;1.70;;
3733;SDS011;1882;52.256;8.874;2023-03-16T16:08:46;3.70;;;2.10;;
3733;SDS011;1882;52.256;8.874;2023-03-16T16:11:15;2.50;;;1.87;;
3733;SDS011;1882;52.256;8.874;2023-03-16T16:13:59;2.17;;;1.97;;
3733;SDS011;1882;52.256;8.874;2023-03-16T16:16:26;3.23;;;2.03;;
3733;SDS011;1882;52.256;8.874;2023-03-16T16:18:54;2.10;;;1.90;;
3733;SDS011;1882;52.256;8.874;2023-03-16T16:21:23;3.70;;;2.00;;
3733;SDS011;1882;52.256;8.874;2023-03-16T16:23:53;2.43;;;1.90;;
3733;SDS011;1882;52.256;8.874;2023-03-16T16:26:27;2.23;;;1.83;;
3733;SDS011;1882;52.256;8.874;2023-03-16T16:29:16;3.40;;;2.00;;
3733;SDS011;1882;52.256;8.874;2023-03-16T16:31:47;2.07;;;1.70;;
3733;SDS011;1882;52.256;8.874;2023-03-16T16:34:16;2.20;;;1.77;;
3733;SDS011;1882;52.256;8.874;2023-03-16T16:36:46;2.73;;;1.70;;
3733;SDS011;1882;52.256;8.874;2023-03-16T16:39:16;1.90;;;1.80;;
3733;SDS011;1882;52.256;8.874;2023-03-16T16:41:43;2.63;;;2.10;;
3733;SDS011;1882;52.256;8.874;2023-03-16T16:44:14;3.30;;;1.77;;
3733;SDS011;1882;52.256;8.874;2023-03-16T16:46:52;2.47;;;1.90;;
3733;SDS011;1882;52.256;8.874;2023-03-16T16:49:24;2.17;;;1.80;;
3733;SDS011;1882;52.256;8.874;2023-03-16T16:51:56;2.90;;;1.83;;
3733;SDS011;1882;52.256;8.874;2023-03-16T16:54:24;2.60;;;1.80;;
3733;SDS011;1882;52.256;8.874;2023-03-16T16:56:54;2.27;;;1.77;;
3733;SDS011;1882;52.256;8.874;2023-03-16T16:59:35;2.30;;;1.70;;
3733;SDS011;1882;52.256;8.874;2023-03-16T17:02:20;1.60;;;1.50;;
3733;SDS011;1882;52.256;8.874;2023-03-16T17:04:48;3.43;;;2.20;;
3733;SDS011;1882;52.256;8.874;2023-03-16T17:07:16;2.07;;;1.93;;
3733;SDS011;1882;52.256;8.874;2023-03-16T17:09:43;2.07;;;1.90;;
3733;SDS011;1882;52.256;8.874;2023-03-16T17:12:14;2.20;;;1.97;;
3733;SDS011;1882;52.256;8.874;2023-03-16T17:14:50;4.40;;;2.57;;
3733;SDS011;1882;52.256;8.874;2023-03-16T17:17:17;3.50;;;2.43;;
3733;SDS011;1882;52.256;8.874;2023-03-16T17:19:44;2.47;;;2.00;;
3733;SDS011;1882;52.256;8.874;2023-03-16T17:22:22;4.27;;;2.40;;
3733;SDS011;1882;52.256;8.874;2023-03-16T17:24:51;6.73;;;2.70;;
3733;SDS011;1882;52.256;8.874;2023-03-16T17:27:21;2.47;;;2.27;;